Barry Silverton — WDI2338 — position and weather

sailwx.info

Track history (hours):
 
Tides and Currents Weather Stations Pressure Air Temp Water Temp Dewpoint Dewpoint Depression Visibility Wind Speed Wind Dir Waves Ship Positions

Barry Silverton

Owner: Harley Marine Services, Inc, Seattle, WA. More information available from US FCC via Universal Licensing System and Coast Guard Vessel Documentation Center.

Last reported at 2018-Jan-20 10:30 UTC. Time now 2018-Jan-20 10:45 UTC.
Position N 40°47' W 073°56'.

Length 178 m; draft 4.3 m.

Type: Ship. MMSI: 367677130.

Date/timePositionNaut miles runAvg speedWind from/ knotsBaromVisibWave heightAir tempDewpointWater temp
2018-Jan-20 10:30N 40°47' W 073°56'4 7.8
2018-Jan-20 10:00N 40°48' W 073°51'4 7.1
2018-Jan-20 09:29N 40°49' W 073°47'4 8.2
2018-Jan-20 08:58N 40°53' W 073°44'4 8.3
2018-Jan-20 08:30N 40°55' W 073°39'36 7.9
2018-Jan-20 03:53N 41°11' W 072°57'39 1.4
2018-Jan-18 23:07N 40°53' W 073°43'110.3
2018-Jan-18 22:59N 40°52' W 073°44'5 9.6
2018-Jan-18 22:30N 40°48' W 073°47'510.2
2018-Jan-18 22:00N 40°48' W 073°54'4 7.1
2018-Jan-18 21:30N 40°46' W 073°57'3 6.1
2018-Jan-18 21:00N 40°43' W 073°58'3 5.8
2018-Jan-18 20:30N 40°41' W 074°01'1 2.2
2018-Jan-18 20:00N 40°40' W 074°02'0 0.0
2018-Jan-18 19:30N 40°40' W 074°02'0 0.1
2018-Jan-18 19:00N 40°40' W 074°02'0 0.1
2018-Jan-18 18:30N 40°40' W 074°02'0 0.0
2018-Jan-18 18:00N 40°40' W 074°02'0 0.0
2018-Jan-18 17:30N 40°40' W 074°02'0 0.1
2018-Jan-18 17:00N 40°40' W 074°02'0 0.1
2018-Jan-18 16:30N 40°40' W 074°02'0 0.1
2018-Jan-18 16:00N 40°40' W 074°02'2 4.3
2018-Jan-18 15:30N 40°39' W 074°05'5 9.8
2018-Jan-18 15:00N 40°39' W 074°11'3 5.2
2018-Jan-18 14:28N 40°36' W 074°12'0 0.0
2018-Jan-18 13:59N 40°36' W 074°12'0 0.0
2018-Jan-18 13:28N 40°36' W 074°12'0 0.6
2018-Jan-18 13:00N 40°36' W 074°12'1 0.1
2018-Jan-18 07:35N 40°36' W 074°12'1 7.5
2018-Jan-18 07:29N 40°37' W 074°12'1 2.7
2018-Jan-18 07:00N 40°38' W 074°12'0 0.0
2018-Jan-18 06:30N 40°38' W 074°12'0 0.0
2018-Jan-18 06:00N 40°38' W 074°12'0 0.0
2018-Jan-18 05:30N 40°38' W 074°12'0 0.0
2018-Jan-18 05:00N 40°38' W 074°12'0 0.0
2018-Jan-18 04:30N 40°38' W 074°12'0 0.0
2018-Jan-18 04:00N 40°38' W 074°12'0 0.0
2018-Jan-18 03:30N 40°38' W 074°12'0 0.0
2018-Jan-18 03:00N 40°38' W 074°12'0 0.0
2018-Jan-18 02:30N 40°38' W 074°12'0 0.0
2018-Jan-18 02:00N 40°38' W 074°12'0 0.0
2018-Jan-18 01:30N 40°38' W 074°12'0 0.0
2018-Jan-18 01:00N 40°38' W 074°12'1 1.5
2018-Jan-18 00:00N 40°39' W 074°10'011.6
2018-Jan-17 23:58N 40°39' W 074°09'  
2018-Jan-12 14:59N 40°39' W 074°07'0 0.0
2018-Jan-12 14:29N 40°39' W 074°07'0 0.0
2018-Jan-12 13:59N 40°39' W 074°07'0 0.0
2018-Jan-12 13:29N 40°39' W 074°07'0 0.0
2018-Jan-12 12:59N 40°39' W 074°07'0 0.0
2018-Jan-12 12:29N 40°39' W 074°07'0 0.0
2018-Jan-12 11:59N 40°39' W 074°07'0 0.0
2018-Jan-12 11:29N 40°39' W 074°07'0 0.0
2018-Jan-12 10:59N 40°39' W 074°07'0 0.0
2018-Jan-12 10:29N 40°39' W 074°07'0 0.0
2018-Jan-12 09:59N 40°39' W 074°07'0 0.0
2018-Jan-12 09:29N 40°39' W 074°07'0 0.0
2018-Jan-12 08:59N 40°39' W 074°07'0 0.0
2018-Jan-12 08:29N 40°39' W 074°07'0 0.0
2018-Jan-12 07:59N 40°39' W 074°07'0 0.0
2018-Jan-12 07:29N 40°39' W 074°07'0 0.0
2018-Jan-12 06:59N 40°39' W 074°07'0 0.0
2018-Jan-12 06:29N 40°39' W 074°07'0 0.0
2018-Jan-12 05:59N 40°39' W 074°07'0 0.0
2018-Jan-12 05:29N 40°39' W 074°07'0 0.0
2018-Jan-12 04:59N 40°39' W 074°07'0 0.0
2018-Jan-12 04:29N 40°39' W 074°07'0 0.0
2018-Jan-12 03:59N 40°39' W 074°07'0 0.0
2018-Jan-12 03:29N 40°39' W 074°07'0 0.0
2018-Jan-12 02:59N 40°39' W 074°07'0 0.0
2018-Jan-12 02:29N 40°39' W 074°07'0 0.0
2018-Jan-12 01:59N 40°39' W 074°07'0 0.0
2018-Jan-12 01:29N 40°39' W 074°07'0 0.0
2018-Jan-12 00:59N 40°39' W 074°07'0 0.0
2018-Jan-12 00:29N 40°39' W 074°07'0 0.0
2018-Jan-11 23:59N 40°39' W 074°07'0 0.0
2018-Jan-11 23:29N 40°39' W 074°07'0 0.0
2018-Jan-11 23:00N 40°39' W 074°07'0 0.0
2018-Jan-11 22:30N 40°39' W 074°07'0 0.0
2018-Jan-11 22:00N 40°39' W 074°07'0 0.0
2018-Jan-11 21:30N 40°39' W 074°07'1 2.6
2018-Jan-11 21:00N 40°39' W 074°05'2 3.9
2018-Jan-11 20:29N 40°39' W 074°03'0 0.1
2018-Jan-11 19:59N 40°39' W 074°03'0 0.1
2018-Jan-11 19:29N 40°39' W 074°03'0 0.1
2018-Jan-11 18:59N 40°39' W 074°03'0 0.0
2018-Jan-11 18:29N 40°39' W 074°03'0 0.1
2018-Jan-11 17:59N 40°39' W 074°03'0 0.0
2018-Jan-11 17:29N 40°39' W 074°03'0 0.0
2018-Jan-11 16:59N 40°39' W 074°03'0 0.0
2018-Jan-11 16:29N 40°39' W 074°03'0 0.0
2018-Jan-11 15:59N 40°39' W 074°03'0 0.0
2018-Jan-11 15:29N 40°39' W 074°03'0 0.1
2018-Jan-11 14:59N 40°39' W 074°03'0 0.1
2018-Jan-11 14:30N 40°39' W 074°03'5 9.2
2018-Jan-11 13:59N 40°38' W 074°09'0 0.7
2018-Jan-11 13:28N 40°38' W 074°09'0 0.0
2018-Jan-11 12:58N 40°38' W 074°09'0 0.0
2018-Jan-11 12:28N 40°38' W 074°09'0 0.0
2018-Jan-11 11:58N 40°38' W 074°09'0 0.0
2018-Jan-11 11:28N 40°38' W 074°09'0 0.0
2018-Jan-11 10:58N 40°38' W 074°09'0 0.0
2018-Jan-11 10:25N 40°38' W 074°09'0 0.0
2018-Jan-11 09:58N 40°38' W 074°09'0 0.0
2018-Jan-11 09:28N 40°38' W 074°09'0 0.0
2018-Jan-11 08:58N 40°38' W 074°09'0 0.0
2018-Jan-11 08:04N 40°38' W 074°09'0 0.0
2018-Jan-11 07:58N 40°38' W 074°09'0 0.0
2018-Jan-11 07:28N 40°38' W 074°09'0 0.0
2018-Jan-11 06:58N 40°38' W 074°09'0 0.0
2018-Jan-11 06:28N 40°38' W 074°09'0 0.0
2018-Jan-11 05:58N 40°38' W 074°09'0 0.0
2018-Jan-11 05:28N 40°38' W 074°09'0 0.0
2018-Jan-11 04:58N 40°38' W 074°09'0 0.0
2018-Jan-11 04:28N 40°38' W 074°09'0 0.0
2018-Jan-11 04:00N 40°38' W 074°09'0 0.0
2018-Jan-11 03:30N 40°38' W 074°09'0 0.0
2018-Jan-11 03:01N 40°38' W 074°09'0 0.0
2018-Jan-11 02:31N 40°38' W 074°09'0 0.0
2018-Jan-11 02:00N 40°38' W 074°09'0 0.0
2018-Jan-11 01:30N 40°38' W 074°09'0 0.1
2018-Jan-11 01:01N 40°38' W 074°09'0 0.1
2018-Jan-11 00:29N 40°38' W 074°09'0 0.0
2018-Jan-11 00:01N 40°38' W 074°09'0 0.6
2018-Jan-10 23:18N 40°39' W 074°10'0 0.0
2018-Jan-10 22:38N 40°39' W 074°10'0 0.0
2018-Jan-10 22:29N 40°39' W 074°10'0 0.0
2018-Jan-10 21:59N 40°39' W 074°10'0 0.0
2018-Jan-10 21:16N 40°39' W 074°10'0 0.0
2018-Jan-10 20:55N 40°39' W 074°10'0 0.0
2018-Jan-10 20:19N 40°39' W 074°10'0 0.0
2018-Jan-10 20:00N 40°39' W 074°10'0 0.0
2018-Jan-10 17:45N 40°39' W 074°10'0 0.0
2018-Jan-10 17:25N 40°39' W 074°10'0 1.0
2018-Jan-10 17:00N 40°38' W 074°09'0 0.0
2018-Jan-10 16:31N 40°38' W 074°09'0 0.0
2018-Jan-10 16:00N 40°38' W 074°10'0 0.0
2018-Jan-10 15:30N 40°38' W 074°09'0 0.0
2018-Jan-10 15:00N 40°38' W 074°09'0 0.0
2018-Jan-10 14:30N 40°38' W 074°09'0 0.0
2018-Jan-10 14:00N 40°38' W 074°09'0 0.0
2018-Jan-10 13:30N 40°38' W 074°09'0 0.0
2018-Jan-10 13:00N 40°38' W 074°09'0 0.0
2018-Jan-10 12:30N 40°38' W 074°09'0 0.0
2018-Jan-10 12:00N 40°38' W 074°09'0 0.0
2018-Jan-10 11:30N 40°38' W 074°09'0 0.0
2018-Jan-10 11:00N 40°38' W 074°09'0 0.0
2018-Jan-10 10:30N 40°38' W 074°09'  
Track history (hours):
 
Tides and Currents Weather Stations Pressure Air Temp Water Temp Dewpoint Dewpoint Depression Visibility Wind Speed Wind Dir Waves Ship Positions

Barry Silverton

Owner: Harley Marine Services, Inc, Seattle, WA. More information available from US FCC via Universal Licensing System and Coast Guard Vessel Documentation Center.

Last reported at 2018-Jan-20 10:30 UTC. Time now 2018-Jan-20 10:45 UTC.
Position N 40°47' W 073°56'.

Length 178 m; draft 4.3 m.

Type: Ship. MMSI: 367677130.

Date/timePositionNaut miles runAvg speedWind from/ knotsBaromVisibWave heightAir tempDewpointWater temp
2018-Jan-20 10:30N 40°47' W 073°56'4 7.8
2018-Jan-20 10:00N 40°48' W 073°51'4 7.1
2018-Jan-20 09:29N 40°49' W 073°47'4 8.2
2018-Jan-20 08:58N 40°53' W 073°44'4 8.3
2018-Jan-20 08:30N 40°55' W 073°39'36 7.9
2018-Jan-20 03:53N 41°11' W 072°57'39 1.4
2018-Jan-18 23:07N 40°53' W 073°43'110.3
2018-Jan-18 22:59N 40°52' W 073°44'5 9.6
2018-Jan-18 22:30N 40°48' W 073°47'510.2
2018-Jan-18 22:00N 40°48' W 073°54'4 7.1
2018-Jan-18 21:30N 40°46' W 073°57'3 6.1
2018-Jan-18 21:00N 40°43' W 073°58'3 5.8
2018-Jan-18 20:30N 40°41' W 074°01'1 2.2
2018-Jan-18 20:00N 40°40' W 074°02'0 0.0
2018-Jan-18 19:30N 40°40' W 074°02'0 0.1
2018-Jan-18 19:00N 40°40' W 074°02'0 0.1
2018-Jan-18 18:30N 40°40' W 074°02'0 0.0
2018-Jan-18 18:00N 40°40' W 074°02'0 0.0
2018-Jan-18 17:30N 40°40' W 074°02'0 0.1
2018-Jan-18 17:00N 40°40' W 074°02'0 0.1
2018-Jan-18 16:30N 40°40' W 074°02'0 0.1
2018-Jan-18 16:00N 40°40' W 074°02'2 4.3
2018-Jan-18 15:30N 40°39' W 074°05'5 9.8
2018-Jan-18 15:00N 40°39' W 074°11'3 5.2
2018-Jan-18 14:28N 40°36' W 074°12'0 0.0
2018-Jan-18 13:59N 40°36' W 074°12'0 0.0
2018-Jan-18 13:28N 40°36' W 074°12'0 0.6
2018-Jan-18 13:00N 40°36' W 074°12'1 0.1
2018-Jan-18 07:35N 40°36' W 074°12'1 7.5
2018-Jan-18 07:29N 40°37' W 074°12'1 2.7
2018-Jan-18 07:00N 40°38' W 074°12'0 0.0
2018-Jan-18 06:30N 40°38' W 074°12'0 0.0
2018-Jan-18 06:00N 40°38' W 074°12'0 0.0
2018-Jan-18 05:30N 40°38' W 074°12'0 0.0
2018-Jan-18 05:00N 40°38' W 074°12'0 0.0
2018-Jan-18 04:30N 40°38' W 074°12'0 0.0
2018-Jan-18 04:00N 40°38' W 074°12'0 0.0
2018-Jan-18 03:30N 40°38' W 074°12'0 0.0
2018-Jan-18 03:00N 40°38' W 074°12'0 0.0
2018-Jan-18 02:30N 40°38' W 074°12'0 0.0
2018-Jan-18 02:00N 40°38' W 074°12'0 0.0
2018-Jan-18 01:30N 40°38' W 074°12'0 0.0
2018-Jan-18 01:00N 40°38' W 074°12'1 1.5
2018-Jan-18 00:00N 40°39' W 074°10'011.6
2018-Jan-17 23:58N 40°39' W 074°09'  
2018-Jan-12 14:59N 40°39' W 074°07'0 0.0
2018-Jan-12 14:29N 40°39' W 074°07'0 0.0
2018-Jan-12 13:59N 40°39' W 074°07'0 0.0
2018-Jan-12 13:29N 40°39' W 074°07'0 0.0
2018-Jan-12 12:59N 40°39' W 074°07'0 0.0
2018-Jan-12 12:29N 40°39' W 074°07'0 0.0
2018-Jan-12 11:59N 40°39' W 074°07'0 0.0
2018-Jan-12 11:29N 40°39' W 074°07'0 0.0
2018-Jan-12 10:59N 40°39' W 074°07'0 0.0
2018-Jan-12 10:29N 40°39' W 074°07'0 0.0
2018-Jan-12 09:59N 40°39' W 074°07'0 0.0
2018-Jan-12 09:29N 40°39' W 074°07'0 0.0
2018-Jan-12 08:59N 40°39' W 074°07'0 0.0
2018-Jan-12 08:29N 40°39' W 074°07'0 0.0
2018-Jan-12 07:59N 40°39' W 074°07'0 0.0
2018-Jan-12 07:29N 40°39' W 074°07'0 0.0
2018-Jan-12 06:59N 40°39' W 074°07'0 0.0
2018-Jan-12 06:29N 40°39' W 074°07'0 0.0
2018-Jan-12 05:59N 40°39' W 074°07'0 0.0
2018-Jan-12 05:29N 40°39' W 074°07'0 0.0
2018-Jan-12 04:59N 40°39' W 074°07'0 0.0
2018-Jan-12 04:29N 40°39' W 074°07'0 0.0
2018-Jan-12 03:59N 40°39' W 074°07'0 0.0
2018-Jan-12 03:29N 40°39' W 074°07'0 0.0
2018-Jan-12 02:59N 40°39' W 074°07'0 0.0
2018-Jan-12 02:29N 40°39' W 074°07'0 0.0
2018-Jan-12 01:59N 40°39' W 074°07'0 0.0
2018-Jan-12 01:29N 40°39' W 074°07'0 0.0
2018-Jan-12 00:59N 40°39' W 074°07'0 0.0
2018-Jan-12 00:29N 40°39' W 074°07'0 0.0
2018-Jan-11 23:59N 40°39' W 074°07'0 0.0
2018-Jan-11 23:29N 40°39' W 074°07'0 0.0
2018-Jan-11 23:00N 40°39' W 074°07'0 0.0
2018-Jan-11 22:30N 40°39' W 074°07'0 0.0
2018-Jan-11 22:00N 40°39' W 074°07'0 0.0
2018-Jan-11 21:30N 40°39' W 074°07'1 2.6
2018-Jan-11 21:00N 40°39' W 074°05'2 3.9
2018-Jan-11 20:29N 40°39' W 074°03'0 0.1
2018-Jan-11 19:59N 40°39' W 074°03'0 0.1
2018-Jan-11 19:29N 40°39' W 074°03'0 0.1
2018-Jan-11 18:59N 40°39' W 074°03'0 0.0
2018-Jan-11 18:29N 40°39' W 074°03'0 0.1
2018-Jan-11 17:59N 40°39' W 074°03'0 0.0
2018-Jan-11 17:29N 40°39' W 074°03'0 0.0
2018-Jan-11 16:59N 40°39' W 074°03'0 0.0
2018-Jan-11 16:29N 40°39' W 074°03'0 0.0
2018-Jan-11 15:59N 40°39' W 074°03'0 0.0
2018-Jan-11 15:29N 40°39' W 074°03'0 0.1
2018-Jan-11 14:59N 40°39' W 074°03'0 0.1
2018-Jan-11 14:30N 40°39' W 074°03'5 9.2
2018-Jan-11 13:59N 40°38' W 074°09'0 0.7
2018-Jan-11 13:28N 40°38' W 074°09'0 0.0
2018-Jan-11 12:58N 40°38' W 074°09'0 0.0
2018-Jan-11 12:28N 40°38' W 074°09'0 0.0
2018-Jan-11 11:58N 40°38' W 074°09'0 0.0
2018-Jan-11 11:28N 40°38' W 074°09'0 0.0
2018-Jan-11 10:58N 40°38' W 074°09'0 0.0
2018-Jan-11 10:25N 40°38' W 074°09'0 0.0
2018-Jan-11 09:58N 40°38' W 074°09'0 0.0
2018-Jan-11 09:28N 40°38' W 074°09'0 0.0
2018-Jan-11 08:58N 40°38' W 074°09'0 0.0
2018-Jan-11 08:04N 40°38' W 074°09'0 0.0
2018-Jan-11 07:58N 40°38' W 074°09'0 0.0
2018-Jan-11 07:28N 40°38' W 074°09'0 0.0
2018-Jan-11 06:58N 40°38' W 074°09'0 0.0
2018-Jan-11 06:28N 40°38' W 074°09'0 0.0
2018-Jan-11 05:58N 40°38' W 074°09'0 0.0
2018-Jan-11 05:28N 40°38' W 074°09'0 0.0
2018-Jan-11 04:58N 40°38' W 074°09'0 0.0
2018-Jan-11 04:28N 40°38' W 074°09'0 0.0
2018-Jan-11 04:00N 40°38' W 074°09'0 0.0
2018-Jan-11 03:30N 40°38' W 074°09'0 0.0
2018-Jan-11 03:01N 40°38' W 074°09'0 0.0
2018-Jan-11 02:31N 40°38' W 074°09'0 0.0
2018-Jan-11 02:00N 40°38' W 074°09'0 0.0
2018-Jan-11 01:30N 40°38' W 074°09'0 0.1
2018-Jan-11 01:01N 40°38' W 074°09'0 0.1
2018-Jan-11 00:29N 40°38' W 074°09'0 0.0
2018-Jan-11 00:01N 40°38' W 074°09'0 0.6
2018-Jan-10 23:18N 40°39' W 074°10'0 0.0
2018-Jan-10 22:38N 40°39' W 074°10'0 0.0
2018-Jan-10 22:29N 40°39' W 074°10'0 0.0
2018-Jan-10 21:59N 40°39' W 074°10'0 0.0
2018-Jan-10 21:16N 40°39' W 074°10'0 0.0
2018-Jan-10 20:55N 40°39' W 074°10'0 0.0
2018-Jan-10 20:19N 40°39' W 074°10'0 0.0
2018-Jan-10 20:00N 40°39' W 074°10'0 0.0
2018-Jan-10 17:45N 40°39' W 074°10'0 0.0
2018-Jan-10 17:25N 40°39' W 074°10'0 1.0
2018-Jan-10 17:00N 40°38' W 074°09'0 0.0
2018-Jan-10 16:31N 40°38' W 074°09'0 0.0
2018-Jan-10 16:00N 40°38' W 074°10'0 0.0
2018-Jan-10 15:30N 40°38' W 074°09'0 0.0
2018-Jan-10 15:00N 40°38' W 074°09'0 0.0
2018-Jan-10 14:30N 40°38' W 074°09'0 0.0
2018-Jan-10 14:00N 40°38' W 074°09'0 0.0
2018-Jan-10 13:30N 40°38' W 074°09'0 0.0
2018-Jan-10 13:00N 40°38' W 074°09'0 0.0
2018-Jan-10 12:30N 40°38' W 074°09'0 0.0
2018-Jan-10 12:00N 40°38' W 074°09'0 0.0
2018-Jan-10 11:30N 40°38' W 074°09'0 0.0
2018-Jan-10 11:00N 40°38' W 074°09'0 0.0
2018-Jan-10 10:30N 40°38' W 074°09'  

Dump ship's entire track history